createdAt,value
2022-10-11T03:09:53.294Z,100657.72
2022-10-11T03:12:55.719Z,100667.47
2022-10-11T03:16:03.161Z,100662.59
2022-10-11T03:19:06.146Z,100660.59
2022-10-11T03:22:08.185Z,100657.19
2022-10-11T03:25:10.759Z,100660.69
2022-10-11T03:28:12.821Z,100661.81
2022-10-11T03:31:15.173Z,100669.81
2022-10-11T03:34:17.216Z,100669.53
2022-10-11T03:37:21.949Z,100668.34
2022-10-11T03:40:24.005Z,100672.13
2022-10-11T03:43:26.368Z,100672.81
2022-10-11T03:46:28.426Z,100680.47
2022-10-11T03:49:31.149Z,100680.81
2022-10-11T03:52:33.908Z,100673.50
2022-10-11T03:55:38.678Z,100676.63
2022-10-11T03:58:41.572Z,100685.53
2022-10-11T04:01:44.006Z,100682.72
2022-10-11T04:04:46.354Z,100668.09
2022-10-11T04:07:48.399Z,100676.34
2022-10-11T04:10:50.834Z,100681.94
2022-10-11T04:13:53.026Z,100684.72
2022-10-11T04:16:59.533Z,100678.50
2022-10-11T04:20:02.375Z,100683.47
2022-10-11T04:23:04.987Z,100680.22
2022-10-11T04:26:08.769Z,100683.22
2022-10-11T04:29:11.847Z,100686.31
2022-10-11T04:32:13.906Z,100681.88
2022-10-11T04:35:16.290Z,100695.94
2022-10-11T04:38:18.339Z,100689.09
2022-10-11T04:41:20.645Z,100694.69
2022-10-11T04:44:22.735Z,100691.19
2022-10-11T04:47:25.182Z,100685.91
2022-10-11T04:50:27.225Z,100673.09
2022-10-11T04:53:32.609Z,100681.47
2022-10-11T04:56:34.670Z,100679.31
2022-10-11T04:59:37.021Z,100676.88
2022-10-11T05:02:39.052Z,100682.09
2022-10-11T05:05:41.368Z,100681.56
2022-10-11T05:08:43.444Z,100679.38
2022-10-11T05:11:45.882Z,100681.16
2022-10-11T05:14:47.920Z,100680.41
2022-10-11T05:17:50.223Z,100684.16
2022-10-11T05:21:00.284Z,100687.56
2022-10-11T05:24:02.682Z,100695.38
2022-10-11T05:27:04.738Z,100694.81
2022-10-11T05:30:07.937Z,100696.78
2022-10-11T05:33:09.978Z,100699.47
2022-10-11T05:36:12.801Z,100708.75
2022-10-11T05:39:14.882Z,100705.34
2022-10-11T05:42:17.356Z,100711.34
2022-10-11T05:45:19.395Z,100718.03
2022-10-11T05:48:22.031Z,100719.25
2022-10-11T05:51:24.075Z,100718.50
2022-10-11T05:54:29.979Z,100719.75
2022-10-11T05:57:32.058Z,100718.87
2022-10-11T06:00:38.054Z,100725.28
2022-10-11T06:03:40.462Z,100720.69
2022-10-11T06:06:42.495Z,100723.97
2022-10-11T06:09:44.817Z,100728.59
2022-10-11T06:12:46.914Z,100729.25
2022-10-11T06:15:49.241Z,100732.06
2022-10-11T06:18:55.282Z,100729.47
2022-10-11T06:21:57.501Z,100735.81
2022-10-11T06:24:59.481Z,100730.75
2022-10-11T06:28:01.910Z,100735.47
2022-10-11T06:31:06.026Z,100739.34
2022-10-11T06:34:08.326Z,100741.09
2022-10-11T06:37:10.388Z,100741.34
2022-10-11T06:40:12.802Z,100733.69
2022-10-11T06:43:14.828Z,100733.44
2022-10-11T06:46:18.600Z,100738.72
2022-10-11T06:49:23.263Z,100739.34
2022-10-11T06:52:25.925Z,100734.91
2022-10-11T06:55:27.972Z,100740.31
2022-10-11T06:58:30.655Z,100732.81
2022-10-11T07:01:33.321Z,100742.50
2022-10-11T07:04:35.780Z,100748.69
2022-10-11T07:07:37.879Z,100743.62
2022-10-11T07:10:40.433Z,100752.06
2022-10-11T07:13:42.735Z,100757.16
2022-10-11T07:16:45.064Z,100753.59
2022-10-11T07:19:47.303Z,100756.72
2022-10-11T07:22:49.617Z,100754.69
2022-10-11T07:25:54.644Z,100751.16
2022-10-11T07:28:57.320Z,100745.97
2022-10-11T07:31:59.603Z,100752.44
2022-10-11T07:35:01.899Z,100752.00
2022-10-11T07:38:05.071Z,100753.94
2022-10-11T07:41:08.784Z,100753.34
2022-10-11T07:44:10.808Z,100759.37
2022-10-11T07:47:13.408Z,100757.31
2022-10-11T07:50:15.537Z,100766.53
2022-10-11T07:53:17.876Z,100759.16
2022-10-11T07:56:23.054Z,100762.53
2022-10-11T07:59:25.405Z,100757.34
2022-10-11T08:02:27.460Z,100760.38
2022-10-11T08:05:30.478Z,100765.66
2022-10-11T08:08:32.863Z,100769.19
2022-10-11T08:11:37.114Z,100756.25
2022-10-11T08:14:41.444Z,100754.88
2022-10-11T08:17:43.848Z,100765.00
2022-10-11T08:20:46.082Z,100767.78
2022-10-11T08:23:48.576Z,100765.06
2022-10-11T08:26:51.426Z,100768.31
2022-10-11T08:29:53.728Z,100767.03
2022-10-11T08:32:55.828Z,100762.59
2022-10-11T08:35:58.408Z,100765.06
2022-10-11T08:39:01.067Z,100768.13
2022-10-11T08:42:10.857Z,100771.78
2022-10-11T08:45:32.985Z,100766.16
2022-10-11T08:48:49.146Z,100770.13
2022-10-11T08:52:00.037Z,100762.19
2022-10-11T08:55:08.260Z,100765.25
2022-10-11T08:58:16.930Z,100755.94
2022-10-11T09:01:23.809Z,100760.72
2022-10-11T09:04:26.014Z,100763.34
2022-10-11T09:07:42.028Z,100759.72
2022-10-11T09:11:05.889Z,100761.12
2022-10-11T09:14:42.522Z,100767.25
2022-10-11T09:17:54.978Z,100775.25
2022-10-11T09:21:16.573Z,100769.22
2022-10-11T09:24:45.597Z,100770.84
2022-10-11T09:28:08.549Z,100781.28
2022-10-11T09:31:11.848Z,100773.19
2022-10-11T09:34:16.056Z,100781.19
2022-10-11T09:37:24.587Z,100772.22
2022-10-11T09:40:44.936Z,100785.38
2022-10-11T09:43:49.452Z,100781.88
2022-10-11T09:46:53.770Z,100781.38
2022-10-11T09:50:13.415Z,100781.34
2022-10-11T09:53:15.770Z,100779.75
2022-10-11T09:56:18.265Z,100777.50
2022-10-11T09:59:29.467Z,100773.75
2022-10-11T10:02:41.163Z,100779.00
2022-10-11T10:05:43.484Z,100783.59
2022-10-11T10:08:47.418Z,100775.84
2022-10-11T10:11:49.797Z,100785.06
2022-10-11T10:15:17.763Z,100775.38
2022-10-11T10:18:54.471Z,100768.47
2022-10-11T10:21:57.061Z,100761.25
2022-10-11T10:25:02.562Z,100753.91
2022-10-11T10:28:17.749Z,100754.81
2022-10-11T10:31:26.421Z,100757.97
2022-10-11T10:34:33.808Z,100755.94
2022-10-11T10:38:03.192Z,100762.75
2022-10-11T10:41:09.821Z,100760.47
2022-10-11T10:44:12.202Z,100757.00
2022-10-11T10:47:29.200Z,100764.22
2022-10-11T10:50:52.471Z,100756.53
2022-10-11T10:54:08.557Z,100746.31
2022-10-11T10:57:18.357Z,100750.84
2022-10-11T11:00:22.894Z,100743.78
2022-10-11T11:03:34.458Z,100743.75
2022-10-11T11:06:58.758Z,100743.97
2022-10-11T11:10:13.100Z,100737.50
2022-10-11T11:13:55.092Z,100736.66
2022-10-11T11:17:24.926Z,100732.28
2022-10-11T11:20:44.852Z,100732.09
2022-10-11T11:24:03.546Z,100731.66
2022-10-11T11:27:24.671Z,100736.09
2022-10-11T11:30:48.543Z,100732.19
2022-10-11T11:34:00.081Z,100720.91
2022-10-11T11:37:17.621Z,100720.06
2022-10-11T11:40:39.314Z,100721.37
2022-10-11T11:44:06.742Z,100718.59
2022-10-11T11:47:17.881Z,100718.22
2022-10-11T11:50:23.743Z,100720.78
2022-10-11T11:53:47.475Z,100710.16
2022-10-11T11:57:40.700Z,100719.34
2022-10-11T12:00:58.295Z,100720.81
2022-10-11T12:04:12.779Z,100718.66
2022-10-11T12:07:18.342Z,100711.97
2022-10-11T12:10:23.713Z,100713.88
2022-10-11T12:13:32.482Z,100712.16
2022-10-11T12:16:35.045Z,100708.59
2022-10-11T12:19:39.867Z,100700.50
2022-10-11T12:22:54.251Z,100703.03
2022-10-11T12:26:18.267Z,100701.09
2022-10-11T12:29:47.028Z,100705.63
2022-10-11T12:32:51.009Z,100704.87
2022-10-11T12:35:53.288Z,100700.12
2022-10-11T12:39:20.374Z,100696.81
2022-10-11T12:42:29.969Z,100690.94
2022-10-11T12:45:34.100Z,100688.72
2022-10-11T12:48:51.092Z,100695.06
2022-10-11T12:52:21.753Z,100689.94
2022-10-11T12:55:41.762Z,100693.88
2022-10-11T12:58:48.069Z,100687.22
2022-10-11T13:01:54.135Z,100689.97
2022-10-11T13:05:31.771Z,100681.75
2022-10-11T13:08:37.535Z,100686.44
2022-10-11T13:11:48.113Z,100688.78
2022-10-11T13:15:03.817Z,100691.88
2022-10-11T13:18:05.934Z,100694.37
2022-10-11T13:21:26.828Z,100696.78
2022-10-11T13:24:37.225Z,100698.84
2022-10-11T13:27:39.700Z,100695.56
2022-10-11T13:30:52.057Z,100700.47
2022-10-11T13:33:56.844Z,100694.69
2022-10-11T13:36:59.034Z,100694.22
2022-10-11T13:40:01.797Z,100692.53
2022-10-11T13:43:06.253Z,100689.88
2022-10-11T13:46:19.294Z,100697.63
2022-10-11T13:49:40.232Z,100694.19
2022-10-11T13:52:56.283Z,100696.22
2022-10-11T13:56:01.147Z,100692.53
2022-10-11T13:59:04.474Z,100695.94
2022-10-11T14:02:23.776Z,100696.34
2022-10-11T14:05:41.258Z,100695.56
2022-10-11T14:08:47.202Z,100689.59
2022-10-11T14:11:49.988Z,100692.19
2022-10-11T14:14:52.475Z,100693.78
2022-10-11T14:17:54.801Z,100694.66
2022-10-11T14:20:56.961Z,100695.38
2022-10-11T14:24:05.406Z,100694.31
2022-10-11T14:27:14.649Z,100701.94
2022-10-11T14:30:27.294Z,100697.66
2022-10-11T14:33:29.911Z,100702.75
2022-10-11T14:36:32.389Z,100693.75
2022-10-11T14:39:34.480Z,100695.63
2022-10-11T14:42:36.783Z,100694.37
2022-10-11T14:45:39.055Z,100698.59
2022-10-11T14:48:54.842Z,100692.47
2022-10-11T14:51:59.296Z,100697.44
2022-10-11T14:55:01.874Z,100698.09
2022-10-11T14:58:05.314Z,100691.44
2022-10-11T15:01:12.193Z,100704.31
2022-10-11T15:04:14.263Z,100694.31
2022-10-11T15:07:16.628Z,100696.78
2022-10-11T15:10:25.989Z,100696.50
2022-10-11T15:13:28.294Z,100694.59
2022-10-11T15:16:30.557Z,100703.25
2022-10-11T15:19:32.928Z,100716.44
